sensor_id;sensor_type;location;lat;lon;timestamp;P1;durP1;ratioP1;P2;durP2;ratioP2
37001;SDS011;22913;51.910;8.374;2023-04-01T00:01:25;2.57;;;1.03;;
37001;SDS011;22913;51.910;8.374;2023-04-01T00:04:12;1.60;;;1.23;;
37001;SDS011;22913;51.910;8.374;2023-04-01T00:06:59;3.83;;;1.50;;
37001;SDS011;22913;51.910;8.374;2023-04-01T00:09:45;1.90;;;1.10;;
37001;SDS011;22913;51.910;8.374;2023-04-01T00:12:31;4.10;;;1.33;;
37001;SDS011;22913;51.910;8.374;2023-04-01T00:15:16;1.57;;;1.23;;
37001;SDS011;22913;51.910;8.374;2023-04-01T00:18:02;2.37;;;1.27;;
37001;SDS011;22913;51.910;8.374;2023-04-01T00:20:50;2.77;;;1.30;;
37001;SDS011;22913;51.910;8.374;2023-04-01T00:23:36;3.33;;;1.10;;
37001;SDS011;22913;51.910;8.374;2023-04-01T00:26:22;2.20;;;1.00;;
37001;SDS011;22913;51.910;8.374;2023-04-01T00:29:08;1.60;;;1.10;;
37001;SDS011;22913;51.910;8.374;2023-04-01T00:31:53;2.23;;;1.07;;
37001;SDS011;22913;51.910;8.374;2023-04-01T00:34:40;1.37;;;1.00;;
37001;SDS011;22913;51.910;8.374;2023-04-01T00:37:27;1.20;;;1.00;;
37001;SDS011;22913;51.910;8.374;2023-04-01T00:40:20;1.43;;;0.90;;
37001;SDS011;22913;51.910;8.374;2023-04-01T00:43:10;1.07;;;0.93;;
37001;SDS011;22913;51.910;8.374;2023-04-01T00:45:57;1.33;;;1.03;;
37001;SDS011;22913;51.910;8.374;2023-04-01T00:48:44;1.57;;;1.20;;
37001;SDS011;22913;51.910;8.374;2023-04-01T00:51:33;3.23;;;1.10;;
37001;SDS011;22913;51.910;8.374;2023-04-01T00:54:24;3.30;;;0.97;;
37001;SDS011;22913;51.910;8.374;2023-04-01T00:57:12;2.63;;;1.13;;
37001;SDS011;22913;51.910;8.374;2023-04-01T01:00:00;2.10;;;1.17;;
37001;SDS011;22913;51.910;8.374;2023-04-01T01:02:50;2.43;;;1.37;;
37001;SDS011;22913;51.910;8.374;2023-04-01T01:05:39;2.57;;;1.10;;
37001;SDS011;22913;51.910;8.374;2023-04-01T01:08:52;2.93;;;1.00;;
37001;SDS011;22913;51.910;8.374;2023-04-01T01:12:00;2.10;;;1.10;;
37001;SDS011;22913;51.910;8.374;2023-04-01T01:14:53;2.23;;;1.10;;
37001;SDS011;22913;51.910;8.374;2023-04-01T01:17:48;2.23;;;1.30;;
37001;SDS011;22913;51.910;8.374;2023-04-01T01:20:44;2.27;;;1.07;;
37001;SDS011;22913;51.910;8.374;2023-04-01T01:27:08;2.37;;;1.00;;
37001;SDS011;22913;51.910;8.374;2023-04-01T01:30:03;2.83;;;1.40;;
37001;SDS011;22913;51.910;8.374;2023-04-01T01:33:01;0.93;;;0.70;;
37001;SDS011;22913;51.910;8.374;2023-04-01T01:35:58;2.67;;;1.43;;
37001;SDS011;22913;51.910;8.374;2023-04-01T01:38:48;3.57;;;1.00;;
37001;SDS011;22913;51.910;8.374;2023-04-01T01:41:36;1.10;;;1.00;;
37001;SDS011;22913;51.910;8.374;2023-04-01T01:44:23;1.57;;;0.90;;
37001;SDS011;22913;51.910;8.374;2023-04-01T01:47:11;3.10;;;1.33;;
37001;SDS011;22913;51.910;8.374;2023-04-01T01:49:58;1.43;;;0.90;;
37001;SDS011;22913;51.910;8.374;2023-04-01T01:52:46;1.40;;;0.97;;
37001;SDS011;22913;51.910;8.374;2023-04-01T01:55:32;2.20;;;1.13;;
37001;SDS011;22913;51.910;8.374;2023-04-01T01:58:19;1.67;;;1.00;;
37001;SDS011;22913;51.910;8.374;2023-04-01T02:01:09;1.90;;;0.93;;
37001;SDS011;22913;51.910;8.374;2023-04-01T02:03:58;0.90;;;0.60;;
37001;SDS011;22913;51.910;8.374;2023-04-01T02:06:45;2.13;;;0.90;;
37001;SDS011;22913;51.910;8.374;2023-04-01T02:09:37;1.17;;;1.00;;
37001;SDS011;22913;51.910;8.374;2023-04-01T02:12:24;1.23;;;0.90;;
37001;SDS011;22913;51.910;8.374;2023-04-01T02:15:11;3.07;;;0.90;;
37001;SDS011;22913;51.910;8.374;2023-04-01T02:17:59;1.33;;;1.00;;
37001;SDS011;22913;51.910;8.374;2023-04-01T02:20:45;1.90;;;0.73;;
37001;SDS011;22913;51.910;8.374;2023-04-01T02:23:31;1.73;;;0.67;;
37001;SDS011;22913;51.910;8.374;2023-04-01T02:26:20;1.07;;;0.87;;
37001;SDS011;22913;51.910;8.374;2023-04-01T02:29:07;1.53;;;0.80;;
37001;SDS011;22913;51.910;8.374;2023-04-01T02:31:56;0.90;;;0.87;;
37001;SDS011;22913;51.910;8.374;2023-04-01T02:34:43;1.10;;;0.80;;
37001;SDS011;22913;51.910;8.374;2023-04-01T02:37:29;0.40;;;0.40;;
37001;SDS011;22913;51.910;8.374;2023-04-01T02:40:15;1.43;;;0.53;;
37001;SDS011;22913;51.910;8.374;2023-04-01T02:43:02;0.90;;;0.60;;
37001;SDS011;22913;51.910;8.374;2023-04-01T02:45:47;1.73;;;0.70;;
37001;SDS011;22913;51.910;8.374;2023-04-01T02:48:33;0.93;;;0.70;;
37001;SDS011;22913;51.910;8.374;2023-04-01T02:51:18;1.43;;;0.73;;
37001;SDS011;22913;51.910;8.374;2023-04-01T02:54:04;0.70;;;0.50;;
37001;SDS011;22913;51.910;8.374;2023-04-01T02:56:49;0.67;;;0.60;;
37001;SDS011;22913;51.910;8.374;2023-04-01T02:59:36;1.20;;;0.80;;
37001;SDS011;22913;51.910;8.374;2023-04-01T03:02:22;0.60;;;0.60;;
37001;SDS011;22913;51.910;8.374;2023-04-01T03:05:08;0.83;;;0.73;;
37001;SDS011;22913;51.910;8.374;2023-04-01T03:07:53;0.97;;;0.70;;
37001;SDS011;22913;51.910;8.374;2023-04-01T03:10:39;1.90;;;0.63;;
37001;SDS011;22913;51.910;8.374;2023-04-01T03:13:25;1.47;;;0.90;;
37001;SDS011;22913;51.910;8.374;2023-04-01T03:16:12;1.40;;;0.60;;
37001;SDS011;22913;51.910;8.374;2023-04-01T03:18:59;1.37;;;0.70;;
37001;SDS011;22913;51.910;8.374;2023-04-01T03:21:45;0.87;;;0.70;;
37001;SDS011;22913;51.910;8.374;2023-04-01T03:24:31;1.40;;;0.80;;
37001;SDS011;22913;51.910;8.374;2023-04-01T03:27:17;1.20;;;0.80;;
37001;SDS011;22913;51.910;8.374;2023-04-01T03:30:03;2.77;;;0.93;;
37001;SDS011;22913;51.910;8.374;2023-04-01T03:32:50;1.20;;;0.80;;
37001;SDS011;22913;51.910;8.374;2023-04-01T03:35:36;1.17;;;0.60;;
37001;SDS011;22913;51.910;8.374;2023-04-01T03:38:21;0.63;;;0.53;;
37001;SDS011;22913;51.910;8.374;2023-04-01T03:41:07;1.03;;;0.70;;
37001;SDS011;22913;51.910;8.374;2023-04-01T03:43:56;0.80;;;0.70;;
37001;SDS011;22913;51.910;8.374;2023-04-01T03:46:42;0.77;;;0.60;;
37001;SDS011;22913;51.910;8.374;2023-04-01T03:49:29;0.50;;;0.50;;
37001;SDS011;22913;51.910;8.374;2023-04-01T03:52:15;0.80;;;0.60;;
37001;SDS011;22913;51.910;8.374;2023-04-01T03:55:01;0.67;;;0.50;;
37001;SDS011;22913;51.910;8.374;2023-04-01T03:57:47;1.77;;;0.80;;
37001;SDS011;22913;51.910;8.374;2023-04-01T04:00:33;0.83;;;0.83;;
37001;SDS011;22913;51.910;8.374;2023-04-01T04:03:19;0.90;;;0.90;;
37001;SDS011;22913;51.910;8.374;2023-04-01T04:06:07;0.60;;;0.60;;
37001;SDS011;22913;51.910;8.374;2023-04-01T04:08:55;0.73;;;0.70;;
37001;SDS011;22913;51.910;8.374;2023-04-01T04:11:41;0.60;;;0.50;;
37001;SDS011;22913;51.910;8.374;2023-04-01T04:14:27;0.40;;;0.40;;
37001;SDS011;22913;51.910;8.374;2023-04-01T04:17:12;1.70;;;0.77;;
37001;SDS011;22913;51.910;8.374;2023-04-01T04:19:59;1.27;;;0.60;;
37001;SDS011;22913;51.910;8.374;2023-04-01T04:22:46;0.40;;;0.40;;
37001;SDS011;22913;51.910;8.374;2023-04-01T04:25:31;0.60;;;0.50;;
37001;SDS011;22913;51.910;8.374;2023-04-01T04:28:17;2.50;;;0.80;;
37001;SDS011;22913;51.910;8.374;2023-04-01T04:31:03;1.53;;;0.80;;
37001;SDS011;22913;51.910;8.374;2023-04-01T04:33:50;0.60;;;0.60;;
37001;SDS011;22913;51.910;8.374;2023-04-01T04:36:35;1.10;;;0.90;;
37001;SDS011;22913;51.910;8.374;2023-04-01T04:39:22;1.90;;;0.83;;
37001;SDS011;22913;51.910;8.374;2023-04-01T04:42:08;1.27;;;0.63;;
37001;SDS011;22913;51.910;8.374;2023-04-01T04:44:53;0.57;;;0.50;;
37001;SDS011;22913;51.910;8.374;2023-04-01T04:47:39;0.60;;;0.60;;
37001;SDS011;22913;51.910;8.374;2023-04-01T04:50:25;2.33;;;0.70;;
37001;SDS011;22913;51.910;8.374;2023-04-01T04:53:10;0.57;;;0.53;;
37001;SDS011;22913;51.910;8.374;2023-04-01T04:55:58;1.33;;;0.70;;
37001;SDS011;22913;51.910;8.374;2023-04-01T04:58:43;1.33;;;0.70;;
37001;SDS011;22913;51.910;8.374;2023-04-01T05:01:29;0.70;;;0.70;;
37001;SDS011;22913;51.910;8.374;2023-04-01T05:04:14;0.80;;;0.80;;
37001;SDS011;22913;51.910;8.374;2023-04-01T05:07:00;1.53;;;0.60;;
37001;SDS011;22913;51.910;8.374;2023-04-01T05:09:46;0.90;;;0.60;;
37001;SDS011;22913;51.910;8.374;2023-04-01T05:12:33;0.73;;;0.63;;
37001;SDS011;22913;51.910;8.374;2023-04-01T05:15:20;1.80;;;1.03;;
37001;SDS011;22913;51.910;8.374;2023-04-01T05:18:06;0.70;;;0.70;;
37001;SDS011;22913;51.910;8.374;2023-04-01T05:20:52;0.87;;;0.80;;
37001;SDS011;22913;51.910;8.374;2023-04-01T05:23:39;0.97;;;0.70;;
37001;SDS011;22913;51.910;8.374;2023-04-01T05:26:25;0.80;;;0.80;;
37001;SDS011;22913;51.910;8.374;2023-04-01T05:29:12;0.93;;;0.70;;
37001;SDS011;22913;51.910;8.374;2023-04-01T05:31:57;4.00;;;1.00;;
37001;SDS011;22913;51.910;8.374;2023-04-01T05:34:43;1.10;;;0.80;;
37001;SDS011;22913;51.910;8.374;2023-04-01T05:37:29;0.57;;;0.57;;
37001;SDS011;22913;51.910;8.374;2023-04-01T05:40:15;0.60;;;0.60;;
37001;SDS011;22913;51.910;8.374;2023-04-01T05:43:00;0.60;;;0.60;;
37001;SDS011;22913;51.910;8.374;2023-04-01T05:45:47;0.80;;;0.80;;
37001;SDS011;22913;51.910;8.374;2023-04-01T05:48:33;2.10;;;0.93;;
37001;SDS011;22913;51.910;8.374;2023-04-01T05:51:20;0.70;;;0.70;;
37001;SDS011;22913;51.910;8.374;2023-04-01T05:54:05;0.80;;;0.57;;
37001;SDS011;22913;51.910;8.374;2023-04-01T05:56:51;1.23;;;0.50;;
37001;SDS011;22913;51.910;8.374;2023-04-01T05:59:36;2.37;;;0.80;;
37001;SDS011;22913;51.910;8.374;2023-04-01T06:02:23;0.67;;;0.40;;
37001;SDS011;22913;51.910;8.374;2023-04-01T06:05:13;0.57;;;0.50;;
37001;SDS011;22913;51.910;8.374;2023-04-01T06:08:05;1.50;;;0.80;;
37001;SDS011;22913;51.910;8.374;2023-04-01T06:11:06;0.60;;;0.60;;
37001;SDS011;22913;51.910;8.374;2023-04-01T06:14:07;0.60;;;0.60;;
37001;SDS011;22913;51.910;8.374;2023-04-01T06:17:05;1.13;;;0.93;;
37001;SDS011;22913;51.910;8.374;2023-04-01T06:20:03;1.37;;;0.73;;
37001;SDS011;22913;51.910;8.374;2023-04-01T06:23:15;0.60;;;0.60;;
37001;SDS011;22913;51.910;8.374;2023-04-01T06:26:14;0.80;;;0.80;;
37001;SDS011;22913;51.910;8.374;2023-04-01T06:29:16;1.47;;;0.90;;
37001;SDS011;22913;51.910;8.374;2023-04-01T06:32:15;1.43;;;0.90;;
37001;SDS011;22913;51.910;8.374;2023-04-01T06:35:19;0.97;;;0.90;;
37001;SDS011;22913;51.910;8.374;2023-04-01T06:38:24;1.57;;;1.23;;
37001;SDS011;22913;51.910;8.374;2023-04-01T06:41:27;1.07;;;1.07;;
37001;SDS011;22913;51.910;8.374;2023-04-01T06:44:36;1.27;;;1.20;;
37001;SDS011;22913;51.910;8.374;2023-04-01T06:47:34;1.40;;;1.30;;
37001;SDS011;22913;51.910;8.374;2023-04-01T06:50:33;1.47;;;1.37;;
37001;SDS011;22913;51.910;8.374;2023-04-01T06:53:27;2.40;;;1.90;;
37001;SDS011;22913;51.910;8.374;2023-04-01T06:56:22;1.67;;;1.57;;
37001;SDS011;22913;51.910;8.374;2023-04-01T06:59:12;1.87;;;1.40;;
37001;SDS011;22913;51.910;8.374;2023-04-01T07:02:02;1.60;;;1.50;;
37001;SDS011;22913;51.910;8.374;2023-04-01T07:05:00;1.47;;;1.37;;
37001;SDS011;22913;51.910;8.374;2023-04-01T07:07:48;1.40;;;1.40;;
37001;SDS011;22913;51.910;8.374;2023-04-01T07:10:41;1.83;;;1.23;;
37001;SDS011;22913;51.910;8.374;2023-04-01T07:13:31;1.53;;;1.43;;
37001;SDS011;22913;51.910;8.374;2023-04-01T07:16:23;2.20;;;1.70;;
37001;SDS011;22913;51.910;8.374;2023-04-01T07:19:14;1.63;;;1.50;;
37001;SDS011;22913;51.910;8.374;2023-04-01T07:22:06;3.63;;;1.90;;
37001;SDS011;22913;51.910;8.374;2023-04-01T07:25:05;1.60;;;1.50;;
37001;SDS011;22913;51.910;8.374;2023-04-01T07:27:59;1.77;;;1.43;;
37001;SDS011;22913;51.910;8.374;2023-04-01T07:30:50;5.47;;;1.60;;
37001;SDS011;22913;51.910;8.374;2023-04-01T07:33:44;1.50;;;1.03;;
37001;SDS011;22913;51.910;8.374;2023-04-01T07:36:39;1.17;;;1.17;;
37001;SDS011;22913;51.910;8.374;2023-04-01T07:39:32;1.63;;;1.20;;
37001;SDS011;22913;51.910;8.374;2023-04-01T07:42:27;1.47;;;1.37;;
37001;SDS011;22913;51.910;8.374;2023-04-01T07:45:21;2.47;;;1.30;;
37001;SDS011;22913;51.910;8.374;2023-04-01T07:48:16;1.30;;;1.20;;
37001;SDS011;22913;51.910;8.374;2023-04-01T07:51:07;1.13;;;1.10;;
37001;SDS011;22913;51.910;8.374;2023-04-01T07:53:58;1.70;;;0.83;;
37001;SDS011;22913;51.910;8.374;2023-04-01T07:56:54;0.97;;;0.93;;
37001;SDS011;22913;51.910;8.374;2023-04-01T07:59:48;0.93;;;0.93;;
37001;SDS011;22913;51.910;8.374;2023-04-01T08:02:44;2.53;;;1.20;;
37001;SDS011;22913;51.910;8.374;2023-04-01T08:05:46;1.57;;;1.07;;
37001;SDS011;22913;51.910;8.374;2023-04-01T08:08:41;1.13;;;1.10;;
37001;SDS011;22913;51.910;8.374;2023-04-01T08:11:41;1.07;;;1.07;;
37001;SDS011;22913;51.910;8.374;2023-04-01T08:14:35;1.00;;;1.00;;
37001;SDS011;22913;51.910;8.374;2023-04-01T08:17:30;1.00;;;1.00;;
37001;SDS011;22913;51.910;8.374;2023-04-01T08:20:24;1.60;;;1.13;;
37001;SDS011;22913;51.910;8.374;2023-04-01T08:23:16;1.20;;;1.10;;
37001;SDS011;22913;51.910;8.374;2023-04-01T08:26:04;1.03;;;1.03;;
37001;SDS011;22913;51.910;8.374;2023-04-01T08:28:56;1.53;;;0.90;;
37001;SDS011;22913;51.910;8.374;2023-04-01T08:31:45;1.17;;;1.13;;
37001;SDS011;22913;51.910;8.374;2023-04-01T08:34:39;2.43;;;1.17;;
37001;SDS011;22913;51.910;8.374;2023-04-01T08:37:28;1.00;;;1.00;;
37001;SDS011;22913;51.910;8.374;2023-04-01T08:43:47;0.90;;;0.90;;
37001;SDS011;22913;51.910;8.374;2023-04-01T08:46:56;1.40;;;0.90;;
37001;SDS011;22913;51.910;8.374;2023-04-01T08:50:05;1.13;;;0.90;;
37001;SDS011;22913;51.910;8.374;2023-04-01T08:53:14;0.90;;;0.90;;
37001;SDS011;22913;51.910;8.374;2023-04-01T08:56:06;1.00;;;1.00;;
37001;SDS011;22913;51.910;8.374;2023-04-01T08:59:02;0.90;;;0.90;;
37001;SDS011;22913;51.910;8.374;2023-04-01T09:02:05;1.10;;;1.00;;
37001;SDS011;22913;51.910;8.374;2023-04-01T09:05:24;1.10;;;1.00;;
37001;SDS011;22913;51.910;8.374;2023-04-01T09:08:25;1.40;;;1.30;;
37001;SDS011;22913;51.910;8.374;2023-04-01T09:11:23;1.17;;;1.00;;
37001;SDS011;22913;51.910;8.374;2023-04-01T09:14:17;0.83;;;0.80;;
37001;SDS011;22913;51.910;8.374;2023-04-01T09:17:23;2.13;;;1.03;;
37001;SDS011;22913;51.910;8.374;2023-04-01T09:20:32;1.37;;;1.30;;
37001;SDS011;22913;51.910;8.374;2023-04-01T09:23:42;1.33;;;1.33;;
37001;SDS011;22913;51.910;8.374;2023-04-01T09:26:50;1.60;;;1.40;;
37001;SDS011;22913;51.910;8.374;2023-04-01T09:30:01;1.13;;;1.13;;
37001;SDS011;22913;51.910;8.374;2023-04-01T09:33:12;4.10;;;1.73;;
37001;SDS011;22913;51.910;8.374;2023-04-01T09:36:21;1.23;;;1.17;;
37001;SDS011;22913;51.910;8.374;2023-04-01T09:45:32;0.97;;;0.93;;
37001;SDS011;22913;51.910;8.374;2023-04-01T09:48:31;1.67;;;1.53;;
37001;SDS011;22913;51.910;8.374;2023-04-01T09:51:43;0.97;;;0.97;;
37001;SDS011;22913;51.910;8.374;2023-04-01T09:54:44;1.70;;;1.10;;
37001;SDS011;22913;51.910;8.374;2023-04-01T10:01:05;1.13;;;0.97;;
37001;SDS011;22913;51.910;8.374;2023-04-01T10:04:15;0.97;;;0.97;;
37001;SDS011;22913;51.910;8.374;2023-04-01T10:14:09;1.10;;;1.10;;
37001;SDS011;22913;51.910;8.374;2023-04-01T10:27:21;1.63;;;1.53;;
37001;SDS011;22913;51.910;8.374;2023-04-01T10:30:28;1.60;;;1.50;;
37001;SDS011;22913;51.910;8.374;2023-04-01T10:33:38;1.50;;;1.40;;
37001;SDS011;22913;51.910;8.374;2023-04-01T10:36:53;1.37;;;1.10;;
37001;SDS011;22913;51.910;8.374;2023-04-01T10:43:13;1.27;;;1.27;;
37001;SDS011;22913;51.910;8.374;2023-04-01T10:46:21;1.30;;;1.20;;
37001;SDS011;22913;51.910;8.374;2023-04-01T10:49:41;1.00;;;1.00;;
37001;SDS011;22913;51.910;8.374;2023-04-01T10:55:49;1.10;;;1.00;;
37001;SDS011;22913;51.910;8.374;2023-04-01T11:08:49;1.40;;;1.30;;
37001;SDS011;22913;51.910;8.374;2023-04-01T11:15:48;1.53;;;0.93;;
37001;SDS011;22913;51.910;8.374;2023-04-01T11:22:30;1.50;;;1.40;;
37001;SDS011;22913;51.910;8.374;2023-04-01T11:25:44;3.10;;;1.37;;
37001;SDS011;22913;51.910;8.374;2023-04-01T11:28:43;1.93;;;1.70;;
37001;SDS011;22913;51.910;8.374;2023-04-01T11:31:47;2.73;;;1.40;;
37001;SDS011;22913;51.910;8.374;2023-04-01T11:34:43;1.70;;;1.03;;
37001;SDS011;22913;51.910;8.374;2023-04-01T11:37:44;1.17;;;1.13;;
37001;SDS011;22913;51.910;8.374;2023-04-01T11:40:37;1.30;;;1.20;;
37001;SDS011;22913;51.910;8.374;2023-04-01T11:43:32;1.70;;;1.60;;
37001;SDS011;22913;51.910;8.374;2023-04-01T11:46:24;1.37;;;1.27;;
37001;SDS011;22913;51.910;8.374;2023-04-01T11:49:20;1.30;;;1.30;;
37001;SDS011;22913;51.910;8.374;2023-04-01T11:52:19;1.67;;;1.23;;
37001;SDS011;22913;51.910;8.374;2023-04-01T11:55:22;1.33;;;1.20;;
37001;SDS011;22913;51.910;8.374;2023-04-01T11:58:12;1.40;;;1.30;;
37001;SDS011;22913;51.910;8.374;2023-04-01T12:01:20;1.60;;;1.50;;
37001;SDS011;22913;51.910;8.374;2023-04-01T12:07:44;1.40;;;1.40;;
37001;SDS011;22913;51.910;8.374;2023-04-01T12:10:42;1.63;;;1.60;;
37001;SDS011;22913;51.910;8.374;2023-04-01T12:13:36;1.70;;;1.60;;
37001;SDS011;22913;51.910;8.374;2023-04-01T12:19:46;1.97;;;1.80;;
37001;SDS011;22913;51.910;8.374;2023-04-01T12:22:42;1.20;;;1.20;;
37001;SDS011;22913;51.910;8.374;2023-04-01T12:25:38;1.20;;;1.20;;
37001;SDS011;22913;51.910;8.374;2023-04-01T12:28:57;2.13;;;1.20;;
37001;SDS011;22913;51.910;8.374;2023-04-01T12:31:52;1.40;;;1.30;;
37001;SDS011;22913;51.910;8.374;2023-04-01T12:35:02;1.63;;;1.53;;
37001;SDS011;22913;51.910;8.374;2023-04-01T12:38:07;5.60;;;1.60;;
37001;SDS011;22913;51.910;8.374;2023-04-01T12:41:03;2.07;;;1.90;;
37001;SDS011;22913;51.910;8.374;2023-04-01T12:44:12;2.43;;;2.33;;
37001;SDS011;22913;51.910;8.374;2023-04-01T12:47:16;2.43;;;2.27;;
37001;SDS011;22913;51.910;8.374;2023-04-01T12:50:34;2.70;;;2.50;;
37001;SDS011;22913;51.910;8.374;2023-04-01T12:53:42;2.70;;;2.30;;
37001;SDS011;22913;51.910;8.374;2023-04-01T12:56:41;2.40;;;2.20;;
37001;SDS011;22913;51.910;8.374;2023-04-01T12:59:40;2.20;;;2.10;;
37001;SDS011;22913;51.910;8.374;2023-04-01T13:02:45;2.37;;;2.27;;
37001;SDS011;22913;51.910;8.374;2023-04-01T13:06:03;2.30;;;2.20;;
37001;SDS011;22913;51.910;8.374;2023-04-01T13:09:06;2.40;;;2.30;;
37001;SDS011;22913;51.910;8.374;2023-04-01T14:03:48;2.50;;;2.40;;
37001;SDS011;22913;51.910;8.374;2023-04-01T14:06:49;2.53;;;2.43;;
37001;SDS011;22913;51.910;8.374;2023-04-01T14:09:44;2.87;;;2.67;;
37001;SDS011;22913;51.910;8.374;2023-04-01T14:12:39;2.50;;;2.40;;
37001;SDS011;22913;51.910;8.374;2023-04-01T14:15:31;2.83;;;2.63;;
37001;SDS011;22913;51.910;8.374;2023-04-01T14:18:31;2.80;;;2.60;;
37001;SDS011;22913;51.910;8.374;2023-04-01T14:21:28;2.90;;;2.80;;
37001;SDS011;22913;51.910;8.374;2023-04-01T14:24:24;3.00;;;2.80;;
37001;SDS011;22913;51.910;8.374;2023-04-01T14:27:27;2.60;;;2.50;;
37001;SDS011;22913;51.910;8.374;2023-04-01T14:30:32;2.87;;;2.67;;
37001;SDS011;22913;51.910;8.374;2023-04-01T14:33:28;3.30;;;3.10;;
37001;SDS011;22913;51.910;8.374;2023-04-01T14:36:33;3.10;;;3.00;;
37001;SDS011;22913;51.910;8.374;2023-04-01T14:39:29;4.07;;;3.63;;
37001;SDS011;22913;51.910;8.374;2023-04-01T14:46:17;3.77;;;3.47;;
37001;SDS011;22913;51.910;8.374;2023-04-01T14:49:17;2.37;;;2.27;;
37001;SDS011;22913;51.910;8.374;2023-04-01T14:52:11;2.20;;;2.10;;
37001;SDS011;22913;51.910;8.374;2023-04-01T14:55:00;3.20;;;2.90;;
37001;SDS011;22913;51.910;8.374;2023-04-01T14:57:57;2.97;;;2.67;;
37001;SDS011;22913;51.910;8.374;2023-04-01T15:00:49;2.70;;;2.50;;
37001;SDS011;22913;51.910;8.374;2023-04-01T15:03:46;3.97;;;3.63;;
37001;SDS011;22913;51.910;8.374;2023-04-01T15:06:57;2.50;;;2.30;;
37001;SDS011;22913;51.910;8.374;2023-04-01T15:09:53;2.30;;;2.20;;
37001;SDS011;22913;51.910;8.374;2023-04-01T15:12:49;2.17;;;2.07;;
37001;SDS011;22913;51.910;8.374;2023-04-01T15:15:47;2.90;;;2.70;;
37001;SDS011;22913;51.910;8.374;2023-04-01T15:18:44;3.03;;;2.83;;
37001;SDS011;22913;51.910;8.374;2023-04-01T15:21:50;2.90;;;2.70;;
37001;SDS011;22913;51.910;8.374;2023-04-01T15:25:05;2.67;;;2.47;;
37001;SDS011;22913;51.910;8.374;2023-04-01T15:28:07;2.50;;;2.40;;
37001;SDS011;22913;51.910;8.374;2023-04-01T15:31:00;2.70;;;2.50;;
37001;SDS011;22913;51.910;8.374;2023-04-01T15:34:07;2.50;;;2.40;;
37001;SDS011;22913;51.910;8.374;2023-04-01T15:37:08;2.60;;;2.40;;
37001;SDS011;22913;51.910;8.374;2023-04-01T15:40:01;2.73;;;2.53;;
37001;SDS011;22913;51.910;8.374;2023-04-01T15:42:55;2.60;;;2.43;;
37001;SDS011;22913;51.910;8.374;2023-04-01T15:45:55;2.40;;;2.20;;
37001;SDS011;22913;51.910;8.374;2023-04-01T15:48:57;3.13;;;2.83;;
37001;SDS011;22913;51.910;8.374;2023-04-01T15:51:58;3.20;;;3.00;;
37001;SDS011;22913;51.910;8.374;2023-04-01T15:58:22;3.03;;;2.83;;
37001;SDS011;22913;51.910;8.374;2023-04-01T16:01:26;3.30;;;3.10;;
37001;SDS011;22913;51.910;8.374;2023-04-01T16:04:23;3.43;;;3.13;;
37001;SDS011;22913;51.910;8.374;2023-04-01T16:07:30;2.50;;;2.30;;
37001;SDS011;22913;51.910;8.374;2023-04-01T16:10:35;2.70;;;2.50;;
37001;SDS011;22913;51.910;8.374;2023-04-01T16:13:37;2.50;;;2.40;;
37001;SDS011;22913;51.910;8.374;2023-04-01T16:16:35;6.43;;;5.00;;
37001;SDS011;22913;51.910;8.374;2023-04-01T16:19:45;5.30;;;4.73;;
37001;SDS011;22913;51.910;8.374;2023-04-01T16:22:37;3.80;;;3.50;;
37001;SDS011;22913;51.910;8.374;2023-04-01T16:25:31;6.80;;;4.07;;
37001;SDS011;22913;51.910;8.374;2023-04-01T16:28:23;4.23;;;3.90;;
37001;SDS011;22913;51.910;8.374;2023-04-01T16:31:13;4.80;;;4.27;;
37001;SDS011;22913;51.910;8.374;2023-04-01T16:34:10;4.17;;;3.77;;
37001;SDS011;22913;51.910;8.374;2023-04-01T16:37:03;3.53;;;3.23;;
37001;SDS011;22913;51.910;8.374;2023-04-01T16:40:01;3.77;;;3.47;;
37001;SDS011;22913;51.910;8.374;2023-04-01T16:42:56;4.07;;;3.67;;
37001;SDS011;22913;51.910;8.374;2023-04-01T16:46:05;3.80;;;3.50;;
37001;SDS011;22913;51.910;8.374;2023-04-01T16:49:17;3.43;;;3.20;;
37001;SDS011;22913;51.910;8.374;2023-04-01T16:52:14;3.80;;;3.50;;
37001;SDS011;22913;51.910;8.374;2023-04-01T16:55:02;4.53;;;4.17;;
37001;SDS011;22913;51.910;8.374;2023-04-01T16:57:58;5.23;;;4.73;;
37001;SDS011;22913;51.910;8.374;2023-04-01T17:00:47;6.40;;;4.43;;
37001;SDS011;22913;51.910;8.374;2023-04-01T17:03:36;4.20;;;3.90;;
37001;SDS011;22913;51.910;8.374;2023-04-01T17:06:28;3.83;;;3.53;;
37001;SDS011;22913;51.910;8.374;2023-04-01T17:09:25;3.60;;;3.40;;
37001;SDS011;22913;51.910;8.374;2023-04-01T17:12:24;5.70;;;3.80;;
37001;SDS011;22913;51.910;8.374;2023-04-01T17:15:17;6.07;;;3.83;;
37001;SDS011;22913;51.910;8.374;2023-04-01T17:18:06;4.10;;;3.80;;
37001;SDS011;22913;51.910;8.374;2023-04-01T17:21:01;4.50;;;4.20;;
37001;SDS011;22913;51.910;8.374;2023-04-01T17:23:53;4.70;;;4.40;;
37001;SDS011;22913;51.910;8.374;2023-04-01T17:26:50;4.77;;;4.43;;
37001;SDS011;22913;51.910;8.374;2023-04-01T17:29:46;5.57;;;5.07;;
37001;SDS011;22913;51.910;8.374;2023-04-01T17:33:13;4.60;;;4.23;;
37001;SDS011;22913;51.910;8.374;2023-04-01T17:36:20;5.03;;;4.63;;
37001;SDS011;22913;51.910;8.374;2023-04-01T17:39:23;4.63;;;4.23;;
37001;SDS011;22913;51.910;8.374;2023-04-01T17:42:21;4.00;;;3.70;;
37001;SDS011;22913;51.910;8.374;2023-04-01T17:45:21;8.70;;;5.87;;
37001;SDS011;22913;51.910;8.374;2023-04-01T17:48:16;10.43;;;6.20;;
37001;SDS011;22913;51.910;8.374;2023-04-01T17:51:14;8.80;;;5.43;;
37001;SDS011;22913;51.910;8.374;2023-04-01T17:54:12;11.87;;;5.90;;
37001;SDS011;22913;51.910;8.374;2023-04-01T17:57:23;5.10;;;3.63;;
37001;SDS011;22913;51.910;8.374;2023-04-01T18:00:18;6.03;;;3.50;;
37001;SDS011;22913;51.910;8.374;2023-04-01T18:03:12;5.03;;;3.40;;
37001;SDS011;22913;51.910;8.374;2023-04-01T18:06:09;4.33;;;2.90;;
37001;SDS011;22913;51.910;8.374;2023-04-01T18:09:01;4.10;;;3.20;;
37001;SDS011;22913;51.910;8.374;2023-04-01T18:11:59;3.73;;;2.90;;
37001;SDS011;22913;51.910;8.374;2023-04-01T18:15:00;2.37;;;2.07;;
37001;SDS011;22913;51.910;8.374;2023-04-01T18:17:59;4.60;;;2.50;;
37001;SDS011;22913;51.910;8.374;2023-04-01T18:21:10;3.60;;;2.83;;
37001;SDS011;22913;51.910;8.374;2023-04-01T18:24:06;7.37;;;4.13;;
37001;SDS011;22913;51.910;8.374;2023-04-01T18:27:01;6.07;;;4.13;;
37001;SDS011;22913;51.910;8.374;2023-04-01T18:29:49;14.33;;;6.80;;
37001;SDS011;22913;51.910;8.374;2023-04-01T18:32:42;7.10;;;3.87;;
37001;SDS011;22913;51.910;8.374;2023-04-01T18:35:34;7.97;;;5.07;;
37001;SDS011;22913;51.910;8.374;2023-04-01T18:38:33;20.87;;;10.03;;
37001;SDS011;22913;51.910;8.374;2023-04-01T18:41:28;24.07;;;11.40;;
37001;SDS011;22913;51.910;8.374;2023-04-01T18:44:23;12.43;;;6.33;;
37001;SDS011;22913;51.910;8.374;2023-04-01T18:47:23;7.30;;;4.20;;
37001;SDS011;22913;51.910;8.374;2023-04-01T18:50:14;9.40;;;4.93;;
37001;SDS011;22913;51.910;8.374;2023-04-01T18:53:09;22.47;;;12.03;;
37001;SDS011;22913;51.910;8.374;2023-04-01T18:56:03;16.37;;;9.73;;
37001;SDS011;22913;51.910;8.374;2023-04-01T18:58:53;4.53;;;3.13;;
37001;SDS011;22913;51.910;8.374;2023-04-01T19:01:47;1.70;;;1.60;;
37001;SDS011;22913;51.910;8.374;2023-04-01T19:04:42;1.30;;;1.30;;
37001;SDS011;22913;51.910;8.374;2023-04-01T19:07:41;1.93;;;1.80;;
37001;SDS011;22913;51.910;8.374;2023-04-01T19:10:31;3.20;;;2.90;;
37001;SDS011;22913;51.910;8.374;2023-04-01T19:13:25;2.00;;;1.70;;
37001;SDS011;22913;51.910;8.374;2023-04-01T19:16:23;2.33;;;2.13;;
37001;SDS011;22913;51.910;8.374;2023-04-01T19:19:27;1.10;;;1.10;;
37001;SDS011;22913;51.910;8.374;2023-04-01T19:22:38;1.07;;;1.07;;
37001;SDS011;22913;51.910;8.374;2023-04-01T19:25:35;1.17;;;1.13;;
37001;SDS011;22913;51.910;8.374;2023-04-01T19:28:26;1.10;;;1.07;;
37001;SDS011;22913;51.910;8.374;2023-04-01T19:31:26;1.47;;;1.10;;
37001;SDS011;22913;51.910;8.374;2023-04-01T19:34:22;1.07;;;1.07;;
37001;SDS011;22913;51.910;8.374;2023-04-01T19:37:19;0.93;;;0.93;;